»·PEaware :: N21585 KDLS-KEUL

N21585 :: KDLS-KEUL

FLIGHT INFORMATION

Flight Status: Arrived
Operator: Privately registered:
United States
More flights under this callsign
Pilot: Erik K. (18332)
Aircraft: ECLIPSE 500
(EA50)
More flights by this aircraft type
Origin: KDLS Columbia Gorge Regl/The Dalle
United States
Destination: KEUL Caldwell Industrial
United States
More flights between these airports :: More routes between these airports
Route: DALLS1 LTJ V497 IMB V500 PARMO
File this flight plan on PilotEdge
Remarks:
Altitude:
(Current/Filed)
25,000ft
Speed:
(Current/Filed)
300kts
Departed: 18-Sep-19 06:16 PM
Arrived: 18-Sep-19 07:12 PM
Distance/Time
Traveled:
226nm/0:56
Distance/Time
To Go:
Arrived

Flight Plot

Page will automatically refresh every two minutes.

Flight plan parsing failed; only flown route is shown


Map Options




Map Legend


Flown Route
Filed Route
Departure Airport
Arrival Airport
Navaid (VOR, NDB)
Fix

Horizontal Profiles

Position Reports

Time Latitude Longitude Heading Altitude Ground
Speed
18-Sep-19 18:01 45.618974 -121.173405 106 218ft 0kts
18-Sep-19 18:02 45.618974 -121.173405 106 218ft 0kts
18-Sep-19 18:03 45.618974 -121.173405 106 218ft 0kts
18-Sep-19 18:04 45.618974 -121.173405 106 218ft 0kts
18-Sep-19 18:05 45.618974 -121.173405 106 218ft 0kts
18-Sep-19 18:06 45.618974 -121.173405 106 218ft 0kts
18-Sep-19 18:07 45.618974 -121.173405 106 218ft 0kts
18-Sep-19 18:08 45.618974 -121.173405 106 218ft 0kts
18-Sep-19 18:09 45.619220 -121.174225 279 216ft 10kts
18-Sep-19 18:10 45.620059 -121.176867 310 212ft 0kts
18-Sep-19 18:11 45.620059 -121.176867 310 212ft 0kts
18-Sep-19 18:12 45.620059 -121.176867 310 212ft 0kts
18-Sep-19 18:13 45.620059 -121.176867 310 212ft 0kts
18-Sep-19 18:14 45.620876 -121.176062 90 211ft 30kts
18-Sep-19 18:15 45.618957 -121.131135 124 1670ft 139kts
18-Sep-19 18:16 45.584245 -121.117567 159 3953ft 135kts
18-Sep-19 18:17 45.586618 -121.080340 349 6110ft 117kts
18-Sep-19 18:18 45.618065 -121.099018 334 7903ft 137kts
18-Sep-19 18:19 45.659362 -121.119026 359 10094ft 155kts
18-Sep-19 18:20 45.700661 -121.100767 63 12037ft 177kts
18-Sep-19 18:21 45.668918 -121.041413 138 12722ft 260kts
18-Sep-19 18:22 45.607426 -120.959515 138 13008ft 327kts
18-Sep-19 18:23 45.544293 -120.875617 138 14792ft 310kts
18-Sep-19 18:24 45.483357 -120.794756 139 17304ft 287kts
18-Sep-19 18:25 45.427477 -120.720783 139 19988ft 263kts
18-Sep-19 18:26 45.377432 -120.654684 139 22663ft 229kts
18-Sep-19 18:27 45.335763 -120.599769 140 24894ft 197kts
18-Sep-19 18:28 45.287605 -120.536754 139 24932ft 273kts
18-Sep-19 18:29 45.225772 -120.455889 139 24929ft 327kts
18-Sep-19 18:30 45.155171 -120.363828 139 24927ft 361kts
18-Sep-19 18:31 45.078943 -120.264740 140 24924ft 380kts
18-Sep-19 18:32 44.999726 -120.162162 140 24918ft 391kts
18-Sep-19 18:33 44.918737 -120.057779 140 24921ft 396kts
18-Sep-19 18:34 44.837235 -119.953144 140 24960ft 399kts
18-Sep-19 18:35 44.756875 -119.850275 141 24982ft 382kts
18-Sep-19 18:36 44.677334 -119.748974 140 24980ft 387kts
18-Sep-19 18:37 44.621262 -119.620823 113 24980ft 396kts
18-Sep-19 18:38 44.580478 -119.479299 114 24982ft 396kts
18-Sep-19 18:39 44.538527 -119.336339 115 24982ft 397kts
18-Sep-19 18:40 44.495904 -119.192124 115 24981ft 404kts
18-Sep-19 18:41 44.452520 -119.046172 115 24981ft 408kts
18-Sep-19 18:42 44.408650 -118.899144 116 24981ft 411kts
18-Sep-19 18:43 44.364128 -118.751211 117 24980ft 414kts
18-Sep-19 18:44 44.319291 -118.603134 117 24982ft 415kts
18-Sep-19 18:45 44.274191 -118.454910 117 24991ft 415kts
18-Sep-19 18:46 44.229893 -118.310138 118 24976ft 412kts
18-Sep-19 18:47 44.184650 -118.163143 118 24983ft 414kts
18-Sep-19 18:48 44.139034 -118.015781 118 24990ft 414kts
18-Sep-19 18:49 44.094879 -117.873727 118 24104ft 366kts
18-Sep-19 18:50 44.054850 -117.746046 118 22992ft 362kts
18-Sep-19 18:51 44.015279 -117.620230 117 21460ft 343kts
18-Sep-19 18:52 43.977709 -117.501362 117 19756ft 331kts
18-Sep-19 18:53 43.941065 -117.385916 116 18055ft 322kts
18-Sep-19 18:54 43.905372 -117.273932 116 16340ft 312kts
18-Sep-19 18:55 43.870657 -117.165467 116 14631ft 303kts
18-Sep-19 18:56 43.822546 -117.076040 133 12926ft 276kts
18-Sep-19 18:57 43.771937 -116.998095 133 11226ft 270kts
18-Sep-19 18:58 43.718368 -116.917136 133 9526ft 289kts
18-Sep-19 18:59 43.664289 -116.836628 133 7827ft 283kts
18-Sep-19 19:00 43.611212 -116.758356 133 6125ft 276kts
18-Sep-19 19:01 43.559416 -116.682353 133 5005ft 271kts
18-Sep-19 19:02 43.507627 -116.606463 133 4999ft 272kts
18-Sep-19 19:03 43.456750 -116.532627 132 4995ft 239kts
18-Sep-19 19:04 43.448415 -116.466193 24 4996ft 216kts
18-Sep-19 19:05 43.494227 -116.446249 13 4992ft 138kts
18-Sep-19 19:06 43.528114 -116.480646 315 4555ft 163kts
18-Sep-19 19:07 43.559099 -116.524161 315 4103ft 140kts
18-Sep-19 19:08 43.584300 -116.559698 315 3864ft 136kts
18-Sep-19 19:09 43.609468 -116.592382 319 3202ft 118kts
18-Sep-19 19:10 43.632900 -116.623358 314 2585ft 116kts
18-Sep-19 19:11 43.645745 -116.641071 315 2414ft 17kts
18-Sep-19 19:12 43.646601 -116.643788 223 2414ft 0kts
18-Sep-19 19:13 43.646601 -116.643788 223 2414ft 0kts

Navigation Log

Ident Type
Flight plan parsing failed, navigation log unavailable